Time;durP1;ratioP1;P1;durP2;ratioP2;P2;SDS_P1;SDS_P2;PMS_P1;PMS_P2;Temp;Humidity;BMP_temperature;BMP_pressure;BME280_temperature;BME280_humidity;BME280_pressure;Samples;Min_cycle;Max_cycle;Signal;HPM_P1;HPM_P2
2024/01/25 00:00:23;;;;;;;14.63;4.20;;;;;;;9.98;72.45;101686.44;3141163;22;20471;-77
2024/01/25 00:01:39;;;;;;;12.95;4.20;;;;;;;9.99;72.36;101684.69;3143124;22;20022;-77
2024/01/25 00:02:53;;;;;;;28.67;4.60;;;;;;;10.00;72.39;101686.47;3143160;22;20024;-78
2024/01/25 00:04:07;;;;;;;21.55;5.55;;;;;;;10.00;72.64;101678.63;3142516;22;20016;-77
2024/01/25 00:05:21;;;;;;;25.38;5.20;;;;;;;10.00;72.48;101678.63;3142479;22;20024;-77
2024/01/25 00:06:35;;;;;;;15.13;5.70;;;;;;;9.99;72.43;101677.78;3142457;22;20022;-77
2024/01/25 00:07:49;;;;;;;15.13;5.15;;;;;;;10.00;72.57;101682.13;3142356;22;20024;-77
2024/01/25 00:09:04;;;;;;;19.65;5.18;;;;;;;9.99;72.26;101677.78;3142725;22;20020;-77
2024/01/25 00:10:18;;;;;;;18.75;6.13;;;;;;;9.99;72.29;101675.16;3142150;22;20091;-77
2024/01/25 00:11:33;;;;;;;21.65;5.20;;;;;;;9.99;72.53;101674.25;3142188;22;20024;-77
2024/01/25 00:12:47;;;;;;;18.83;4.72;;;;;;;9.99;72.42;101672.56;3142597;22;20478;-77
2024/01/25 00:14:01;;;;;;;24.88;7.05;;;;;;;9.99;72.59;101675.16;3142746;22;20063;-78
2024/01/25 00:15:15;;;;;;;12.75;4.80;;;;;;;9.98;72.53;101673.41;3143191;22;20024;-77
2024/01/25 00:16:29;;;;;;;21.27;5.40;;;;;;;9.98;72.38;101678.59;3142363;22;20016;-77
2024/01/25 00:17:44;;;;;;;20.70;5.47;;;;;;;9.99;72.24;101675.16;3142949;22;20027;-77
2024/01/25 00:18:58;;;;;;;15.35;5.60;;;;;;;9.98;72.28;101676.00;3143085;22;20047;-78
2024/01/25 00:20:12;;;;;;;14.50;6.03;;;;;;;9.98;72.13;101672.53;3142845;22;20027;-77
2024/01/25 00:21:26;;;;;;;12.13;3.72;;;;;;;9.98;72.11;101672.53;3143155;23;20026;-77
2024/01/25 00:22:39;;;;;;;13.57;5.15;;;;;;;9.97;72.01;101674.28;3143105;22;20470;-78
2024/01/25 00:23:54;;;;;;;20.83;6.05;;;;;;;9.97;72.00;101678.63;3142537;22;20024;-77
2024/01/25 00:25:07;;;;;;;21.00;4.20;;;;;;;9.97;71.92;101678.63;3143217;22;20024;-78
2024/01/25 00:26:22;;;;;;;17.58;5.32;;;;;;;9.95;72.02;101673.38;3143235;22;20020;-78
2024/01/25 00:27:35;;;;;;;18.35;4.45;;;;;;;9.96;71.76;101672.50;3142866;22;20459;-78
2024/01/25 00:28:50;;;;;;;27.58;8.98;;;;;;;9.96;71.70;101677.72;3142758;22;20020;-77
2024/01/25 00:30:04;;;;;;;17.98;4.25;;;;;;;9.95;71.66;101669.91;3142389;22;20032;-77
2024/01/25 00:31:19;;;;;;;18.08;4.45;;;;;;;9.95;71.76;101673.38;3142969;22;20024;-77
2024/01/25 00:32:32;;;;;;;22.30;6.45;;;;;;;9.94;71.87;101676.84;3142110;22;20016;-77
2024/01/25 00:33:48;;;;;;;18.95;3.95;;;;;;;9.94;71.96;101676.84;3142839;22;20020;-78
2024/01/25 00:35:02;;;;;;;17.70;5.13;;;;;;;9.93;71.79;101675.06;3143077;22;20024;-78
2024/01/25 00:36:17;;;;;;;13.68;5.28;;;;;;;9.95;71.94;101675.09;3142478;22;20027;-78
2024/01/25 00:37:31;;;;;;;11.35;3.92;;;;;;;9.93;71.75;101675.06;3142878;22;20460;-77
2024/01/25 00:38:47;;;;;;;21.38;6.68;;;;;;;9.93;72.02;101680.28;3143062;22;20016;-78
2024/01/25 00:40:01;;;;;;;18.25;5.55;;;;;;;9.94;71.77;101675.94;3142161;22;20071;-77
2024/01/25 00:41:18;;;;;;;18.77;5.32;;;;;;;9.93;71.88;101682.03;3143080;23;20040;-77
2024/01/25 00:42:35;;;;;;;20.52;6.53;;;;;;;9.92;71.90;101681.16;3143020;22;20024;-77
2024/01/25 00:43:50;;;;;;;28.02;6.63;;;;;;;9.93;71.86;101671.59;3142155;22;20044;-77
2024/01/25 00:45:05;;;;;;;24.17;5.22;;;;;;;9.92;71.87;101678.56;3142556;22;20034;-77
2024/01/25 00:46:20;;;;;;;33.83;4.95;;;;;;;9.94;71.86;101678.56;3142631;22;20024;-77
2024/01/25 00:47:34;;;;;;;26.38;7.60;;;;;;;9.91;71.95;101679.41;3142142;22;20518;-77
2024/01/25 00:48:50;;;;;;;13.52;5.07;;;;;;;9.92;72.02;101673.34;3142114;22;20020;-78
2024/01/25 00:50:05;;;;;;;14.27;5.05;;;;;;;9.92;71.94;101670.75;3143223;22;20035;-79
2024/01/25 00:51:22;;;;;;;18.75;4.15;;;;;;;9.93;72.04;101676.81;3143282;22;20043;-78
2024/01/25 00:52:36;;;;;;;17.95;3.47;;;;;;;9.94;71.84;101681.16;3142593;22;20024;-78
2024/01/25 00:53:51;;;;;;;16.63;3.92;;;;;;;9.94;71.85;101681.16;3143167;22;20020;-78
2024/01/25 00:55:05;;;;;;;20.73;5.63;;;;;;;9.94;71.67;101678.56;3142892;22;20102;-78
2024/01/25 00:56:20;;;;;;;22.45;4.20;;;;;;;9.94;71.63;101681.16;3142486;22;20091;-77
2024/01/25 00:57:34;;;;;;;20.05;5.78;;;;;;;9.94;71.72;101683.78;3142723;22;20486;-78
2024/01/25 00:58:49;;;;;;;25.77;5.22;;;;;;;9.94;71.82;101676.84;3143178;22;20030;-77
2024/01/25 01:00:04;;;;;;;17.10;4.65;;;;;;;9.94;71.96;101669.03;3142367;22;20020;-78
2024/01/25 01:01:22;;;;;;;18.38;6.75;;;;;;;9.95;71.96;101675.09;3143092;23;20031;-78
2024/01/25 01:02:38;;;;;;;18.52;4.57;;;;;;;9.95;71.96;101672.50;3143187;22;20016;-78
2024/01/25 01:03:56;;;;;;;14.07;4.03;;;;;;;9.95;71.80;101675.09;3142585;22;20089;-78
2024/01/25 01:05:10;;;;;;;18.40;4.50;;;;;;;9.96;71.78;101669.03;3142935;22;20020;-78
2024/01/25 01:06:25;;;;;;;18.20;4.97;;;;;;;9.95;71.74;101660.34;3142912;22;20028;-78
2024/01/25 01:07:40;;;;;;;19.27;4.57;;;;;;;9.96;71.64;101658.59;3141538;22;20020;-78
2024/01/25 01:08:56;;;;;;;14.05;4.78;;;;;;;9.97;71.69;101668.19;3142844;22;20024;-77
2024/01/25 01:10:09;;;;;;;14.98;5.63;;;;;;;9.98;71.72;101675.13;3143824;22;20020;-78
2024/01/25 01:11:24;;;;;;;24.15;5.25;;;;;;;9.97;71.70;101674.28;3143454;22;20230;-77
2024/01/25 01:12:37;;;;;;;13.07;4.55;;;;;;;9.96;71.72;101667.28;3143134;22;20028;-78
2024/01/25 01:13:52;;;;;;;15.88;6.78;;;;;;;9.96;71.82;101671.63;3142966;22;20095;-78
2024/01/25 01:15:06;;;;;;;17.20;4.35;;;;;;;9.97;71.91;101678.63;3142528;22;20024;-78
2024/01/25 01:16:20;;;;;;;20.63;4.72;;;;;;;9.95;72.00;101680.31;3142136;22;20406;-78
2024/01/25 01:17:34;;;;;;;26.42;4.55;;;;;;;9.95;71.99;101673.38;3142666;22;20028;-78
2024/01/25 01:18:48;;;;;;;18.25;6.47;;;;;;;9.95;72.09;101677.72;3143123;22;20478;-78
2024/01/25 01:20:04;;;;;;;21.35;4.05;;;;;;;9.95;71.99;101681.19;3142478;22;20028;-78
2024/01/25 01:21:20;;;;;;;21.15;5.32;;;;;;;9.94;71.91;101682.06;3142912;22;20367;-78
2024/01/25 01:22:34;;;;;;;21.05;4.68;;;;;;;9.94;71.66;101679.47;3142984;22;20028;-78
2024/01/25 01:23:48;;;;;;;20.95;5.22;;;;;;;9.97;71.61;101683.84;3142287;22;20091;-78
2024/01/25 01:25:02;;;;;;;22.35;6.35;;;;;;;9.97;71.80;101669.06;3142799;22;20024;-78
2024/01/25 01:26:16;;;;;;;16.42;4.45;;;;;;;9.98;71.64;101672.53;3142258;22;20024;-78
2024/01/25 01:27:30;;;;;;;16.30;5.03;;;;;;;9.98;71.80;101680.34;3142294;22;20482;-77
2024/01/25 01:28:44;;;;;;;21.10;4.15;;;;;;;9.98;71.77;101675.13;3142273;22;20027;-77
2024/01/25 01:29:58;;;;;;;11.57;3.97;;;;;;;9.97;71.65;101669.06;3143552;22;20031;-78
2024/01/25 01:31:12;;;;;;;18.90;6.53;;;;;;;9.97;72.05;101666.44;3143126;22;20020;-78
2024/01/25 01:32:26;;;;;;;19.00;6.28;;;;;;;9.97;71.98;101673.41;3142128;22;20047;-78
2024/01/25 01:33:41;;;;;;;19.48;4.75;;;;;;;9.97;71.80;101678.63;3142669;22;20016;-78
2024/01/25 01:34:54;;;;;;;17.20;5.32;;;;;;;9.97;72.02;101678.63;3142721;22;20459;-78
2024/01/25 01:36:10;;;;;;;14.80;4.57;;;;;;;9.97;71.70;101681.22;3142299;22;20022;-78
2024/01/25 01:37:23;;;;;;;25.85;5.30;;;;;;;9.97;71.80;101682.09;3142559;22;20171;-78
2024/01/25 01:38:38;;;;;;;14.82;4.05;;;;;;;9.97;71.84;101673.41;3142733;22;20022;-78
2024/01/25 01:39:52;;;;;;;21.55;7.05;;;;;;;9.97;71.73;101671.66;3142320;22;20024;-78
2024/01/25 01:41:06;;;;;;;11.43;3.83;;;;;;;9.96;71.78;101677.72;3142716;22;20030;-78
2024/01/25 01:42:20;;;;;;;15.90;6.15;;;;;;;9.97;71.69;101673.41;3142408;23;20364;-78
2024/01/25 01:43:34;;;;;;;18.98;5.70;;;;;;;9.97;71.80;101676.88;3142810;22;20056;-78
2024/01/25 01:44:48;;;;;;;23.02;5.47;;;;;;;9.98;71.76;101680.34;3142026;22;20024;-79
2024/01/25 01:46:05;;;;;;;19.38;4.18;;;;;;;9.97;71.73;101679.47;3142170;22;20082;-78
2024/01/25 01:47:19;;;;;;;14.23;5.07;;;;;;;9.98;71.78;101686.44;3142007;22;20631;-77
2024/01/25 01:48:34;;;;;;;16.90;4.25;;;;;;;9.96;71.88;101682.94;3141900;22;20016;-78
2024/01/25 01:49:48;;;;;;;19.50;5.50;;;;;;;9.97;71.81;101689.03;3142778;22;20452;-78
2024/01/25 01:51:02;;;;;;;18.48;5.65;;;;;;;9.96;71.85;101685.53;3142667;22;20028;-77
2024/01/25 01:52:17;;;;;;;21.15;5.55;;;;;;;9.96;71.88;101695.97;3142117;22;20340;-78
2024/01/25 01:53:33;;;;;;;12.32;4.13;;;;;;;9.95;71.85;101690.75;3142738;22;20024;-78
2024/01/25 01:54:47;;;;;;;22.08;5.85;;;;;;;9.95;72.05;101690.75;3142649;22;20031;-77
2024/01/25 01:56:03;;;;;;;18.25;5.07;;;;;;;9.95;71.88;101686.41;3142236;22;20085;-77
2024/01/25 01:57:16;;;;;;;33.55;8.63;;;;;;;9.95;71.88;101685.53;3142223;22;20020;-78
2024/01/25 01:58:31;;;;;;;21.75;6.25;;;;;;;9.95;71.68;101685.53;3142641;22;20027;-77
2024/01/25 01:59:45;;;;;;;21.85;4.10;;;;;;;9.95;71.68;101680.31;3142262;22;20020;-78
2024/01/25 02:01:00;;;;;;;23.20;5.32;;;;;;;9.96;71.69;101682.06;3142913;22;20031;-77
2024/01/25 02:02:14;;;;;;;21.40;5.65;;;;;;;9.96;71.79;101684.66;3142691;22;20624;-78
2024/01/25 02:03:28;;;;;;;31.05;6.32;;;;;;;9.97;71.64;101684.69;3142160;22;20021;-78
2024/01/25 02:04:43;;;;;;;19.88;4.90;;;;;;;9.97;71.63;101682.09;3142290;22;20035;-77
2024/01/25 02:06:02;;;;;;;19.05;4.15;;;;;;;9.97;71.55;101684.69;3142836;22;20028;-77
2024/01/25 02:07:16;;;;;;;19.55;3.85;;;;;;;9.96;71.48;101679.44;3144061;22;20024;-78
2024/01/25 02:08:31;;;;;;;13.75;4.80;;;;;;;9.95;71.58;101675.09;3143673;22;20363;-79
2024/01/25 02:09:44;;;;;;;12.57;4.25;;;;;;;9.95;71.66;101678.59;3144216;22;20023;-78
2024/01/25 02:10:59;;;;;;;20.42;4.00;;;;;;;9.94;71.63;101678.56;3144126;22;20020;-78
2024/01/25 02:12:15;;;;;;;16.95;5.15;;;;;;;9.94;71.97;101681.16;3143170;22;20020;-78
2024/01/25 02:13:30;;;;;;;21.33;5.00;;;;;;;9.92;71.52;101686.38;3144315;23;20074;-78
2024/01/25 02:14:43;;;;;;;18.95;4.30;;;;;;;9.91;71.69;101673.31;3144170;22;20111;-78
2024/01/25 02:15:58;;;;;;;21.73;6.07;;;;;;;9.92;71.43;101678.56;3143546;22;20039;-78
2024/01/25 02:17:11;;;;;;;18.90;4.85;;;;;;;9.92;71.61;101686.38;3143812;22;20027;-77
2024/01/25 02:18:26;;;;;;;21.35;4.47;;;;;;;9.91;71.48;101681.13;3142895;22;20030;-77
2024/01/25 02:19:39;;;;;;;18.20;6.30;;;;;;;9.91;71.43;101676.78;3142615;22;20016;-78
2024/01/25 02:20:54;;;;;;;18.63;4.82;;;;;;;9.91;71.34;101666.34;3142894;22;20020;-77
2024/01/25 02:22:07;;;;;;;22.25;4.93;;;;;;;9.91;71.36;101678.53;3142352;23;20042;-77
2024/01/25 02:23:23;;;;;;;17.38;4.53;;;;;;;9.90;71.15;101672.44;3142283;22;20027;-77
2024/01/25 02:24:36;;;;;;;15.32;4.97;;;;;;;9.90;71.06;101679.41;3142018;22;20023;-78
2024/01/25 02:25:51;;;;;;;22.55;5.00;;;;;;;9.89;71.09;101681.13;3142776;22;20526;-78
2024/01/25 02:27:05;;;;;;;17.90;3.80;;;;;;;9.90;71.08;101677.66;3142774;22;20028;-77
2024/01/25 02:28:19;;;;;;;21.70;5.22;;;;;;;9.91;70.93;101674.19;3141858;22;20039;-78
2024/01/25 02:29:33;;;;;;;10.55;3.47;;;;;;;9.91;70.80;101665.50;3142725;22;20025;-78
2024/01/25 02:30:47;;;;;;;18.88;5.10;;;;;;;9.90;70.68;101672.44;3142814;23;20026;-78
2024/01/25 02:32:00;;;;;;;16.08;5.07;;;;;;;9.91;70.79;101673.31;3142238;22;20024;-77
2024/01/25 02:33:15;;;;;;;17.52;3.92;;;;;;;9.89;70.60;101670.72;3142612;22;20574;-77
2024/01/25 02:34:28;;;;;;;18.50;5.57;;;;;;;9.90;70.63;101679.41;3142485;22;20359;-78
2024/01/25 02:35:43;;;;;;;19.38;4.10;;;;;;;9.89;70.44;101673.31;3142249;22;20020;-78
2024/01/25 02:36:56;;;;;;;23.63;6.53;;;;;;;9.89;70.44;101678.53;3142763;22;20024;-78
2024/01/25 02:38:10;;;;;;;15.85;3.72;;;;;;;9.89;70.51;101688.97;3142679;22;20030;-77
2024/01/25 02:39:25;;;;;;;23.95;4.15;;;;;;;9.89;70.55;101691.56;3142847;22;20031;-77
2024/01/25 02:40:40;;;;;;;19.92;6.28;;;;;;;9.88;70.65;101694.16;3142283;22;20016;-77
2024/01/25 02:41:53;;;;;;;18.23;4.43;;;;;;;9.87;70.92;101684.59;3142674;23;20027;-77
2024/01/25 02:43:08;;;;;;;29.30;6.30;;;;;;;9.86;70.82;101686.31;3142896;22;20068;-77
2024/01/25 02:44:21;;;;;;;20.65;4.57;;;;;;;9.85;70.86;101683.69;3142814;22;20020;-77
2024/01/25 02:45:36;;;;;;;13.45;4.43;;;;;;;9.85;70.91;101684.56;3142971;22;20355;-77
2024/01/25 02:46:49;;;;;;;29.38;4.50;;;;;;;9.84;70.85;101693.25;3143045;22;20510;-77
2024/01/25 02:48:04;;;;;;;13.80;4.13;;;;;;;9.82;70.91;101685.41;3141497;22;20022;-78
2024/01/25 02:49:18;;;;;;;15.18;3.90;;;;;;;9.82;70.72;101685.41;3142849;22;20020;-78
2024/01/25 02:50:32;;;;;;;23.40;6.18;;;;;;;9.82;70.97;101684.53;3142684;22;20030;-78
2024/01/25 02:51:45;;;;;;;22.80;6.10;;;;;;;9.81;70.88;101691.47;3142003;22;20020;-78
2024/01/25 02:53:00;;;;;;;26.20;5.38;;;;;;;9.81;71.03;101695.84;3142663;22;20030;-77
2024/01/25 02:54:13;;;;;;;12.45;3.83;;;;;;;9.80;70.91;101692.31;3143491;22;20024;-78
2024/01/25 02:55:29;;;;;;;21.67;4.53;;;;;;;9.79;70.98;101689.72;3143396;23;20207;-78
2024/01/25 02:56:43;;;;;;;11.80;3.42;;;;;;;9.78;70.95;101696.66;3142618;22;20372;-78
2024/01/25 02:57:57;;;;;;;19.38;5.88;;;;;;;9.78;71.06;101704.50;3143652;22;20026;-78
2024/01/25 02:59:11;;;;;;;19.92;6.18;;;;;;;9.77;71.07;101697.50;3148694;22;20059;-78
2024/01/25 03:00:25;;;;;;;25.25;4.75;;;;;;;9.76;70.97;101694.91;3143225;22;20467;-77
2024/01/25 03:01:40;;;;;;;18.00;5.25;;;;;;;9.74;71.13;101696.59;3143440;22;20016;-77
2024/01/25 03:02:55;;;;;;;18.92;4.70;;;;;;;9.73;71.20;101690.53;3143736;22;20024;-77
2024/01/25 03:04:08;;;;;;;22.33;4.32;;;;;;;9.73;71.12;101689.63;3142716;22;20360;-77
2024/01/25 03:05:23;;;;;;;13.57;6.28;;;;;;;9.71;71.11;101692.25;3143860;22;20020;-78
2024/01/25 03:06:36;;;;;;;11.45;5.30;;;;;;;9.71;71.01;101696.59;3144541;22;20020;-79
2024/01/25 03:07:51;;;;;;;25.00;4.70;;;;;;;9.69;70.89;101686.13;3143865;22;20026;-79
2024/01/25 03:09:04;;;;;;;20.02;4.43;;;;;;;9.68;70.75;101697.41;3144353;22;20103;-79
2024/01/25 03:10:19;;;;;;;15.00;4.03;;;;;;;9.67;70.73;101692.19;3144761;22;20020;-79
2024/01/25 03:11:34;;;;;;;25.52;5.93;;;;;;;9.66;70.64;101688.69;3145038;22;20451;-78
2024/01/25 03:12:49;;;;;;;19.02;4.90;;;;;;;9.65;70.58;101686.94;3143797;22;20558;-78
2024/01/25 03:14:02;;;;;;;21.40;5.38;;;;;;;9.65;70.46;101680.84;3143470;23;20024;-77
2024/01/25 03:15:16;;;;;;;19.50;4.88;;;;;;;9.63;70.54;101686.06;3143944;22;20072;-77
2024/01/25 03:16:30;;;;;;;25.27;5.05;;;;;;;9.63;70.52;101687.78;3142947;22;20020;-77
2024/01/25 03:17:44;;;;;;;24.85;6.35;;;;;;;9.60;70.50;101684.28;3143780;22;20020;-77
2024/01/25 03:18:58;;;;;;;15.85;4.53;;;;;;;9.60;70.58;101692.13;3143442;22;20024;-77
2024/01/25 03:20:12;;;;;;;16.42;4.10;;;;;;;9.59;70.29;101692.09;3142758;22;20023;-77
2024/01/25 03:21:26;;;;;;;17.40;4.35;;;;;;;9.59;70.29;101692.09;3143200;23;20058;-78
2024/01/25 03:22:40;;;;;;;22.63;5.90;;;;;;;9.57;70.30;101692.06;3143513;23;20107;-78
2024/01/25 03:23:54;;;;;;;19.55;5.60;;;;;;;9.58;70.38;101695.56;3143121;22;20031;-77
2024/01/25 03:25:09;;;;;;;18.45;4.85;;;;;;;9.57;70.09;101699.00;3143675;22;20020;-78
2024/01/25 03:26:23;;;;;;;34.92;6.43;;;;;;;9.56;70.21;101705.94;3143088;22;20027;-77
2024/01/25 03:27:39;;;;;;;25.88;4.88;;;;;;;9.56;70.09;101700.75;3143069;22;20016;-77
2024/01/25 03:28:52;;;;;;;17.75;3.92;;;;;;;9.55;70.11;101706.81;3143431;22;20016;-77
2024/01/25 03:30:07;;;;;;;29.17;5.82;;;;;;;9.57;69.97;101715.50;3143230;23;20591;-77
2024/01/25 03:31:21;;;;;;;22.23;5.00;;;;;;;9.56;70.20;101708.56;3143251;22;20020;-77
2024/01/25 03:32:36;;;;;;;12.85;3.58;;;;;;;9.56;70.08;101710.28;3142719;22;20024;-77
2024/01/25 03:33:49;;;;;;;15.90;4.53;;;;;;;9.55;69.86;101718.94;3143157;22;20031;-78
2024/01/25 03:35:04;;;;;;;20.95;5.57;;;;;;;9.56;69.86;101712.91;3143020;22;20343;-77
2024/01/25 03:36:18;;;;;;;25.20;6.63;;;;;;;9.55;69.82;101721.56;3142529;22;20016;-77
2024/01/25 03:37:32;;;;;;;25.00;6.53;;;;;;;9.55;70.04;101724.16;3147994;22;20031;-77
2024/01/25 03:38:45;;;;;;;15.63;3.55;;;;;;;9.55;69.96;101726.75;3142892;22;20035;-77
2024/01/25 03:39:59;;;;;;;12.05;6.18;;;;;;;9.54;69.71;101725.03;3142377;22;20020;-77
2024/01/25 03:41:14;;;;;;;18.42;5.90;;;;;;;9.54;69.96;101722.44;3143001;22;20020;-77
2024/01/25 03:42:27;;;;;;;24.23;4.70;;;;;;;9.52;69.92;101719.78;3143301;23;20031;-77
2024/01/25 03:43:44;;;;;;;24.42;4.85;;;;;;;9.52;69.95;101726.72;3142612;22;20046;-77
2024/01/25 03:44:58;;;;;;;16.33;5.05;;;;;;;9.52;69.87;101730.22;3143228;22;20039;-77
2024/01/25 03:46:12;;;;;;;20.42;4.88;;;;;;;9.51;69.95;101738.03;3143437;22;20123;-77
2024/01/25 03:47:26;;;;;;;17.67;5.80;;;;;;;9.51;69.78;101728.47;3143244;22;20028;-77
2024/01/25 03:48:40;;;;;;;22.52;5.03;;;;;;;9.51;69.82;101725.88;3142522;22;20024;-77
2024/01/25 03:49:53;;;;;;;15.98;4.25;;;;;;;9.50;69.76;101736.25;3143230;22;20028;-77
2024/01/25 03:51:08;;;;;;;16.65;3.92;;;;;;;9.50;69.87;101736.25;3143243;22;20467;-77
2024/01/25 03:52:22;;;;;;;26.85;5.97;;;;;;;9.50;70.02;101733.66;3142780;22;20020;-77
2024/01/25 03:53:36;;;;;;;29.92;4.88;;;;;;;9.48;69.77;101736.25;3143367;22;20020;-77
2024/01/25 03:54:49;;;;;;;13.95;5.72;;;;;;;9.47;69.86;101739.69;3143153;22;20356;-77
2024/01/25 03:56:04;;;;;;;28.15;4.82;;;;;;;9.46;69.87;101735.34;3142560;22;20030;-77
2024/01/25 03:57:18;;;;;;;20.48;6.07;;;;;;;9.46;70.02;101735.34;3142981;22;20024;-77
2024/01/25 03:58:32;;;;;;;24.73;8.35;;;;;;;9.45;69.86;101732.72;3142960;22;20027;-77
2024/01/25 03:59:47;;;;;;;14.40;4.05;;;;;;;9.44;69.71;101739.66;3142215;22;20031;-77
2024/01/25 04:01:01;;;;;;;13.70;4.32;;;;;;;9.44;70.01;101737.06;3143366;22;20080;-77
2024/01/25 04:02:15;;;;;;;26.45;6.45;;;;;;;9.43;69.67;101732.72;3143101;22;20028;-77
2024/01/25 04:03:29;;;;;;;19.63;5.22;;;;;;;9.43;69.70;101737.06;3143008;22;20050;-77
2024/01/25 04:04:43;;;;;;;30.30;5.25;;;;;;;9.42;69.71;101741.38;3142362;22;20513;-77
2024/01/25 04:05:57;;;;;;;24.20;7.00;;;;;;;9.43;69.75;101734.44;3142730;22;20099;-77
2024/01/25 04:07:11;;;;;;;21.13;5.13;;;;;;;9.42;69.88;101738.75;3143090;22;20024;-77
2024/01/25 04:08:25;;;;;;;24.50;6.00;;;;;;;9.42;69.83;101740.50;3142396;22;20042;-77
2024/01/25 04:09:39;;;;;;;15.55;4.15;;;;;;;9.42;69.81;101741.38;3143028;22;20027;-77
2024/01/25 04:10:54;;;;;;;19.88;4.47;;;;;;;9.42;69.72;101751.78;3143254;22;20024;-77
2024/01/25 04:12:08;;;;;;;17.73;5.20;;;;;;;9.42;69.76;101757.00;3142457;22;20020;-77
2024/01/25 04:13:22;;;;;;;21.13;5.78;;;;;;;9.42;69.85;101756.13;3143149;22;20024;-77
2024/01/25 04:14:35;;;;;;;21.70;5.25;;;;;;;9.42;69.94;101756.13;3142848;22;20024;-77
2024/01/25 04:15:51;;;;;;;22.13;5.13;;;;;;;9.42;69.90;101757.00;3142661;22;20020;-78
2024/01/25 04:17:04;;;;;;;24.98;6.25;;;;;;;9.41;69.86;101750.03;3142997;22;20039;-77
2024/01/25 04:18:19;;;;;;;38.90;7.15;;;;;;;9.42;70.00;101754.38;3142092;22;20030;-77
2024/01/25 04:19:32;;;;;;;28.48;9.05;;;;;;;9.41;70.08;101755.25;3143140;22;20600;-77
2024/01/25 04:20:47;;;;;;;26.20;5.13;;;;;;;9.42;69.89;101754.38;3142502;22;20020;-77
2024/01/25 04:22:01;;;;;;;20.52;6.00;;;;;;;9.41;70.11;101755.25;3143087;22;20050;-77
2024/01/25 04:23:15;;;;;;;23.05;5.30;;;;;;;9.39;69.84;101756.97;3142883;22;20025;-77
2024/01/25 04:24:29;;;;;;;13.98;4.25;;;;;;;9.39;69.83;101752.63;3142290;22;20091;-77
2024/01/25 04:25:44;;;;;;;31.15;6.00;;;;;;;9.41;69.75;101749.19;3143022;22;20020;-77
2024/01/25 04:26:57;;;;;;;16.00;4.22;;;;;;;9.39;69.98;101746.53;3142960;22;20024;-77
2024/01/25 04:28:11;;;;;;;18.17;6.68;;;;;;;9.39;69.74;101751.75;3142294;22;20043;-77
2024/01/25 04:29:25;;;;;;;23.08;5.60;;;;;;;9.38;69.78;101753.47;3143276;22;20459;-77
2024/01/25 04:30:39;;;;;;;25.13;6.30;;;;;;;9.38;69.85;101757.81;3143095;22;20020;-77
2024/01/25 04:31:54;;;;;;;21.33;5.10;;;;;;;9.38;69.98;101755.22;3142611;22;20031;-77
2024/01/25 04:33:08;;;;;;;19.30;4.50;;;;;;;9.37;70.07;101759.56;3143056;22;20098;-77
2024/01/25 04:34:22;;;;;;;24.00;3.92;;;;;;;9.36;70.28;101757.78;3143089;22;20459;-77
2024/01/25 04:35:36;;;;;;;22.10;6.70;;;;;;;9.36;70.12;101763.00;3142697;22;20026;-77
2024/01/25 04:36:51;;;;;;;25.48;7.00;;;;;;;9.37;70.43;101766.47;3142582;22;20026;-77
2024/01/25 04:38:04;;;;;;;19.08;6.30;;;;;;;9.35;70.23;101769.09;3142853;23;20028;-77
2024/01/25 04:39:19;;;;;;;18.52;6.68;;;;;;;9.36;70.22;101777.75;3143236;22;20031;-77
2024/01/25 04:40:32;;;;;;;27.52;4.55;;;;;;;9.35;70.15;101770.81;3142334;22;20012;-77
2024/01/25 04:41:46;;;;;;;14.90;5.32;;;;;;;9.35;70.29;101761.25;3143020;22;20511;-77
2024/01/25 04:43:00;;;;;;;25.70;5.80;;;;;;;9.34;70.35;101761.22;3143364;22;20024;-77
2024/01/25 04:44:14;;;;;;;32.53;5.68;;;;;;;9.34;70.26;101756.03;3142599;22;20020;-78
2024/01/25 04:45:28;;;;;;;21.38;4.85;;;;;;;9.33;70.46;101762.09;3143317;22;20047;-77
2024/01/25 04:46:43;;;;;;;28.08;6.40;;;;;;;9.31;70.16;101763.78;3142935;22;20027;-77
2024/01/25 04:47:58;;;;;;;25.90;6.68;;;;;;;9.30;70.22;101775.09;3142122;22;20498;-78
2024/01/25 04:49:12;;;;;;;16.77;4.18;;;;;;;9.28;70.19;101769.84;3142826;22;20024;-78
2024/01/25 04:50:26;;;;;;;29.90;7.22;;;;;;;9.25;70.35;101759.38;3142452;22;20035;-77
2024/01/25 04:51:40;;;;;;;18.70;6.18;;;;;;;9.24;70.32;101761.94;3142127;22;20016;-77
2024/01/25 04:52:53;;;;;;;16.50;4.25;;;;;;;9.23;70.25;101760.22;3142640;22;20054;-78
2024/01/25 04:54:12;;;;;;;14.23;4.68;;;;;;;9.21;70.34;101762.78;3143026;22;20365;-78
2024/01/25 04:55:25;;;;;;;21.95;5.43;;;;;;;9.18;70.35;101761.00;3143209;22;20028;-77
2024/01/25 04:56:40;;;;;;;21.55;6.22;;;;;;;9.17;70.34;101772.28;3142224;22;20043;-77
2024/01/25 04:57:53;;;;;;;16.95;5.50;;;;;;;9.16;70.38;101775.75;3142332;22;20043;-78
2024/01/25 04:59:08;;;;;;;28.05;6.35;;;;;;;9.15;70.39;101768.78;3142773;22;20026;-77
2024/01/25 05:00:22;;;;;;;17.60;5.43;;;;;;;9.14;70.38;101766.16;3142308;22;20020;-77
2024/01/25 05:01:37;;;;;;;14.35;5.25;;;;;;;9.12;70.43;101766.13;3143057;22;20049;-78
2024/01/25 05:02:50;;;;;;;22.25;6.18;;;;;;;9.11;70.45;101771.31;3143125;23;20020;-78
2024/01/25 05:04:06;;;;;;;19.50;5.65;;;;;;;9.10;70.31;101772.16;3142400;22;20095;-77
2024/01/25 05:05:20;;;;;;;25.23;5.78;;;;;;;9.07;70.44;101775.59;3142730;22;20020;-77
2024/01/25 05:06:34;;;;;;;21.42;4.93;;;;;;;9.03;70.73;101784.19;3142763;22;20020;-78
2024/01/25 05:07:48;;;;;;;24.42;5.82;;;;;;;9.02;70.93;101776.38;3142198;22;20024;-77
2024/01/25 05:09:02;;;;;;;17.63;5.80;;;;;;;9.00;71.01;101778.09;3142664;22;20024;-77
2024/01/25 05:10:16;;;;;;;27.15;7.57;;;;;;;8.97;70.84;101778.03;3142506;22;20024;-77
2024/01/25 05:11:30;;;;;;;25.95;6.32;;;;;;;8.93;70.85;101779.69;3142976;22;20070;-78
2024/01/25 05:12:44;;;;;;;18.85;5.55;;;;;;;8.88;71.08;101781.34;3142378;22;20027;-78
2024/01/25 05:13:58;;;;;;;21.13;6.07;;;;;;;8.83;71.16;101778.69;3142925;22;20027;-78
2024/01/25 05:15:12;;;;;;;23.95;6.60;;;;;;;8.79;71.04;101779.47;3142696;22;20020;-78
2024/01/25 05:16:26;;;;;;;23.02;7.03;;;;;;;8.76;71.29;101781.16;3141538;22;20024;-78
2024/01/25 05:17:39;;;;;;;24.92;7.18;;;;;;;8.71;71.47;101781.09;3142713;22;20020;-78
2024/01/25 05:18:54;;;;;;;19.58;5.75;;;;;;;8.67;71.69;101795.78;3142789;22;20020;-78
2024/01/25 05:20:09;;;;;;;33.75;8.50;;;;;;;8.63;71.85;101788.75;3142444;22;20020;-77
2024/01/25 05:21:24;;;;;;;22.30;6.05;;;;;;;8.59;71.91;101784.34;3142855;22;20048;-78
2024/01/25 05:22:40;;;;;;;25.85;7.90;;;;;;;8.56;71.87;101791.22;3142929;22;20027;-78
2024/01/25 05:23:55;;;;;;;28.50;6.30;;;;;;;8.50;72.07;101792.00;3142428;22;20020;-78
2024/01/25 05:25:08;;;;;;;29.55;6.10;;;;;;;8.46;72.14;101796.25;3142766;22;20459;-77
2024/01/25 05:26:23;;;;;;;21.92;6.97;;;;;;;8.41;72.16;101792.69;3142878;22;20095;-78
2024/01/25 05:27:36;;;;;;;24.80;6.82;;;;;;;8.37;72.26;101795.19;3142590;22;20024;-78
2024/01/25 05:28:50;;;;;;;16.25;5.18;;;;;;;8.33;72.59;101795.97;3142188;22;20433;-78
2024/01/25 05:30:07;;;;;;;18.05;5.70;;;;;;;8.26;72.58;101788.06;3142850;22;20035;-77
2024/01/25 05:31:21;;;;;;;27.50;6.15;;;;;;;8.22;72.58;101787.97;3142620;22;20352;-77
2024/01/25 05:32:35;;;;;;;25.52;5.43;;;;;;;8.16;72.81;101788.72;3142197;22;20020;-78
2024/01/25 05:33:49;;;;;;;21.08;5.43;;;;;;;8.13;73.02;101785.16;3142723;23;20490;-78
2024/01/25 05:35:04;;;;;;;19.50;6.10;;;;;;;8.06;73.21;101784.19;3142698;22;20356;-77
2024/01/25 05:36:20;;;;;;;21.58;4.50;;;;;;;8.01;73.37;101788.44;3141761;22;20328;-77
2024/01/25 05:37:34;;;;;;;29.27;7.50;;;;;;;7.98;73.30;101790.97;3142338;22;20028;-77
2024/01/25 05:38:48;;;;;;;31.48;5.18;;;;;;;7.93;73.61;101790.00;3142882;22;20024;-77
2024/01/25 05:40:02;;;;;;;20.85;5.05;;;;;;;7.88;73.54;101795.09;3142020;22;20027;-77
2024/01/25 05:41:16;;;;;;;24.90;5.85;;;;;;;7.84;73.70;101801.06;3142731;22;20456;-77
2024/01/25 05:42:30;;;;;;;17.52;4.85;;;;;;;7.77;73.57;101794.88;3142906;22;20028;-77
2024/01/25 05:43:45;;;;;;;24.73;6.35;;;;;;;7.73;74.06;101797.38;3141820;22;20020;-77
2024/01/25 05:44:58;;;;;;;24.50;5.22;;;;;;;7.69;73.92;101804.19;3142741;22;20031;-77